createdAt,value
2022-08-27T00:02:11.769Z,44.58
2022-08-27T00:04:41.275Z,44.53
2022-08-27T00:07:12.976Z,45.13
2022-08-27T00:09:41.467Z,45.27
2022-08-27T00:12:11.321Z,45.34
2022-08-27T00:14:39.856Z,45.24
2022-08-27T00:17:08.382Z,45.61
2022-08-27T00:19:37.079Z,45.84
2022-08-27T00:22:06.258Z,45.81
2022-08-27T00:24:34.693Z,46.04
2022-08-27T00:27:06.096Z,46.03
2022-08-27T00:29:35.233Z,46.15
2022-08-27T00:32:03.301Z,46.30
2022-08-27T00:34:32.295Z,46.56
2022-08-27T00:37:00.081Z,46.64
2022-08-27T00:39:27.922Z,46.69
2022-08-27T00:41:55.608Z,46.66
2022-08-27T00:44:23.440Z,46.17
2022-08-27T00:46:55.066Z,46.49
2022-08-27T00:49:42.901Z,46.32
2022-08-27T00:52:31.153Z,46.12
2022-08-27T00:55:14.200Z,46.25
2022-08-27T00:57:50.396Z,45.85
2022-08-27T01:00:19.385Z,45.93
2022-08-27T01:02:47.761Z,45.71
2022-08-27T01:05:21.914Z,45.91
2022-08-27T01:07:53.314Z,46.03
2022-08-27T01:10:24.692Z,45.84
2022-08-27T01:12:54.418Z,45.70
2022-08-27T01:15:26.521Z,45.98
2022-08-27T01:17:54.910Z,45.68
2022-08-27T01:20:35.548Z,45.72
2022-08-27T01:23:18.465Z,45.87
2022-08-27T01:25:46.814Z,45.96
2022-08-27T01:28:16.474Z,46.29
2022-08-27T01:30:44.997Z,46.48
2022-08-27T01:33:16.523Z,45.99
2022-08-27T01:35:46.601Z,46.04
2022-08-27T01:38:19.003Z,45.99
2022-08-27T01:41:00.453Z,46.01
2022-08-27T01:43:31.379Z,46.30
2022-08-27T01:45:59.546Z,46.80
2022-08-27T01:48:27.309Z,46.98
2022-08-27T01:50:56.317Z,47.07
2022-08-27T01:53:26.552Z,47.02
2022-08-27T01:55:56.406Z,47.23
2022-08-27T01:58:27.737Z,47.86
2022-08-27T02:00:59.823Z,47.97
2022-08-27T02:03:27.810Z,47.88
2022-08-27T02:05:55.468Z,48.13
2022-08-27T02:08:23.346Z,48.21
2022-08-27T02:10:51.249Z,48.31
2022-08-27T02:13:19.377Z,48.52
2022-08-27T02:15:47.142Z,48.84
2022-08-27T02:18:15.505Z,49.13
2022-08-27T02:20:46.019Z,49.08
2022-08-27T02:23:17.173Z,49.23
2022-08-27T02:25:47.447Z,49.47
2022-08-27T02:28:16.119Z,49.86
2022-08-27T02:30:44.344Z,49.76
2022-08-27T02:33:14.179Z,50.43
2022-08-27T02:35:44.124Z,50.34
2022-08-27T02:38:14.223Z,49.95
2022-08-27T02:40:41.941Z,49.57
2022-08-27T02:43:10.239Z,49.51
2022-08-27T02:45:43.452Z,49.85
2022-08-27T02:48:11.930Z,49.89
2022-08-27T02:50:40.348Z,49.62
2022-08-27T02:53:08.268Z,49.75
2022-08-27T02:55:36.338Z,49.84
2022-08-27T02:58:05.270Z,49.55
2022-08-27T03:00:33.366Z,49.87
2022-08-27T03:03:02.322Z,49.46
2022-08-27T03:05:29.989Z,49.36
2022-08-27T03:07:59.492Z,49.42
2022-08-27T03:10:27.076Z,49.57
2022-08-27T03:12:54.721Z,49.24
2022-08-27T03:15:22.646Z,49.36
2022-08-27T03:18:09.738Z,49.28
2022-08-27T03:20:41.039Z,49.49
2022-08-27T03:23:10.361Z,49.05
2022-08-27T03:25:38.856Z,48.79
2022-08-27T03:28:11.628Z,48.66
2022-08-27T03:30:53.982Z,48.79
2022-08-27T03:33:22.900Z,49.12
2022-08-27T03:35:52.055Z,48.73
2022-08-27T03:38:20.848Z,48.69
2022-08-27T03:40:49.442Z,49.18
2022-08-27T03:43:20.504Z,48.76
2022-08-27T03:46:01.674Z,48.71
2022-08-27T03:48:32.227Z,48.75
2022-08-27T03:51:05.524Z,48.60
2022-08-27T03:53:33.147Z,49.21
2022-08-27T03:56:01.253Z,48.74
2022-08-27T03:58:29.396Z,48.93
2022-08-27T04:00:57.102Z,48.74
2022-08-27T04:03:25.252Z,48.58
2022-08-27T04:05:57.647Z,48.69
2022-08-27T04:08:26.654Z,48.50
2022-08-27T04:10:55.481Z,48.35
2022-08-27T04:13:23.913Z,48.29
2022-08-27T04:15:54.397Z,48.84
2022-08-27T04:18:22.220Z,48.40
2022-08-27T04:20:52.649Z,48.90
2022-08-27T04:23:20.606Z,48.84
2022-08-27T04:25:48.608Z,48.95
2022-08-27T04:28:17.224Z,48.89
2022-08-27T04:30:46.786Z,48.86
2022-08-27T04:33:15.393Z,48.98
2022-08-27T04:35:43.472Z,48.97
2022-08-27T04:38:11.297Z,48.98
2022-08-27T04:40:57.753Z,48.94
2022-08-27T04:43:28.432Z,48.76
2022-08-27T04:45:56.704Z,48.90
2022-08-27T04:48:25.823Z,48.61
2022-08-27T04:50:53.722Z,48.81
2022-08-27T04:53:21.361Z,48.77
2022-08-27T04:55:55.047Z,48.70
2022-08-27T04:58:24.753Z,48.85
2022-08-27T05:00:56.256Z,48.52
2022-08-27T05:03:24.457Z,48.47
2022-08-27T05:05:53.878Z,48.57
2022-08-27T05:08:21.644Z,48.78
2022-08-27T05:10:51.168Z,48.49
2022-08-27T05:13:20.402Z,48.38
2022-08-27T05:15:48.144Z,48.75
2022-08-27T05:18:16.114Z,48.51
2022-08-27T05:20:49.023Z,48.57
2022-08-27T05:23:18.556Z,48.89
2022-08-27T05:25:49.166Z,48.84
2022-08-27T05:28:21.574Z,48.73
2022-08-27T05:31:04.838Z,49.23
2022-08-27T05:33:33.704Z,49.06
2022-08-27T05:36:01.824Z,48.90
2022-08-27T05:38:31.000Z,49.31
2022-08-27T05:41:10.465Z,49.38
2022-08-27T05:43:41.541Z,49.04
2022-08-27T05:46:14.919Z,49.30
2022-08-27T05:48:43.429Z,49.63
2022-08-27T05:51:25.747Z,49.44
2022-08-27T05:54:08.485Z,49.76
2022-08-27T05:56:38.130Z,49.53
2022-08-27T05:59:24.939Z,49.61
2022-08-27T06:01:55.539Z,49.35
2022-08-27T06:04:25.534Z,49.71
2022-08-27T06:06:53.517Z,49.47
2022-08-27T06:09:24.811Z,49.25
2022-08-27T06:11:57.554Z,49.79
2022-08-27T06:14:27.297Z,49.53
2022-08-27T06:16:56.069Z,48.82
2022-08-27T06:19:24.191Z,49.54
2022-08-27T06:22:00.656Z,49.76
2022-08-27T06:24:29.833Z,49.61
2022-08-27T06:26:57.728Z,50.16
2022-08-27T06:29:26.000Z,50.25
2022-08-27T06:31:56.455Z,50.40
2022-08-27T06:34:24.376Z,50.06
2022-08-27T06:36:53.710Z,50.29
2022-08-27T06:39:21.563Z,50.37
2022-08-27T06:41:50.692Z,50.38
2022-08-27T06:44:24.474Z,50.42
2022-08-27T06:46:52.507Z,50.22
2022-08-27T06:49:20.273Z,50.37
2022-08-27T06:51:48.555Z,50.19
2022-08-27T06:54:18.633Z,49.72
2022-08-27T06:56:46.433Z,49.72
2022-08-27T06:59:16.563Z,49.91
2022-08-27T07:01:47.375Z,50.06
2022-08-27T07:04:21.196Z,49.71
2022-08-27T07:06:50.601Z,49.60
2022-08-27T07:09:20.705Z,49.65
2022-08-27T07:11:48.398Z,49.57
2022-08-27T07:14:16.559Z,49.75
2022-08-27T07:16:45.322Z,49.78
2022-08-27T07:19:15.991Z,49.90
2022-08-27T07:21:44.674Z,50.12
2022-08-27T07:24:12.726Z,50.02
2022-08-27T07:26:43.118Z,50.31
2022-08-27T07:29:15.274Z,50.22
2022-08-27T07:31:43.886Z,50.33
2022-08-27T07:34:11.987Z,50.65
2022-08-27T07:36:41.130Z,51.54
2022-08-27T07:39:09.288Z,51.00
2022-08-27T07:41:57.435Z,50.61
2022-08-27T07:44:26.351Z,50.68
2022-08-27T07:46:58.939Z,50.80
2022-08-27T07:49:29.028Z,50.86
2022-08-27T07:51:56.918Z,50.79
2022-08-27T07:54:25.440Z,52.29
2022-08-27T07:56:55.435Z,51.98
2022-08-27T07:59:26.234Z,51.97
2022-08-27T08:01:56.315Z,50.97
2022-08-27T08:04:26.646Z,50.83
2022-08-27T08:06:56.248Z,50.80
2022-08-27T08:09:25.098Z,50.86
2022-08-27T08:11:54.969Z,51.24
2022-08-27T08:14:22.761Z,51.60
2022-08-27T08:16:50.817Z,51.30
2022-08-27T08:19:18.572Z,51.52
2022-08-27T08:21:46.198Z,51.30
2022-08-27T08:24:13.922Z,50.98
2022-08-27T08:26:42.309Z,50.98
2022-08-27T08:29:17.942Z,50.88
2022-08-27T08:31:49.945Z,51.00
2022-08-27T08:34:19.862Z,51.71
2022-08-27T08:36:52.417Z,51.66
2022-08-27T08:39:24.253Z,51.55
2022-08-27T08:41:55.513Z,51.16
2022-08-27T08:44:42.472Z,52.03
2022-08-27T08:47:12.919Z,52.37
2022-08-27T08:49:55.169Z,52.37
2022-08-27T08:52:35.081Z,52.20
2022-08-27T08:55:19.266Z,52.59
2022-08-27T08:58:12.468Z,52.00
2022-08-27T09:00:43.854Z,52.37
2022-08-27T09:03:14.418Z,51.61
2022-08-27T09:06:00.483Z,52.01
2022-08-27T09:08:41.103Z,51.98
2022-08-27T09:11:36.145Z,51.53
2022-08-27T09:14:34.835Z,51.20
2022-08-27T09:17:10.736Z,51.44
2022-08-27T09:19:39.300Z,51.47
2022-08-27T09:22:13.243Z,51.36
2022-08-27T09:25:03.358Z,51.00
2022-08-27T09:27:32.215Z,51.07
2022-08-27T09:30:09.446Z,51.74
2022-08-27T09:32:37.701Z,51.77
2022-08-27T09:35:10.039Z,52.05
2022-08-27T09:37:44.910Z,51.67
2022-08-27T09:40:26.111Z,52.81
2022-08-27T09:42:57.303Z,52.67
2022-08-27T09:45:27.631Z,52.30
2022-08-27T09:48:15.358Z,52.74
2022-08-27T09:50:53.051Z,52.50
2022-08-27T09:53:26.853Z,52.28
2022-08-27T09:55:59.084Z,52.19
2022-08-27T09:58:32.128Z,52.44
2022-08-27T10:01:00.141Z,52.20
2022-08-27T10:03:33.204Z,52.54
2022-08-27T10:06:01.492Z,52.17
2022-08-27T10:08:58.062Z,52.80
2022-08-27T10:11:33.042Z,52.40
2022-08-27T10:14:07.535Z,52.66
2022-08-27T10:16:35.473Z,52.20
2022-08-27T10:19:34.076Z,52.64
2022-08-27T10:22:16.252Z,52.56
2022-08-27T10:25:11.898Z,52.61
2022-08-27T10:27:39.525Z,52.68
2022-08-27T10:30:20.885Z,52.83
2022-08-27T10:33:03.592Z,52.65
2022-08-27T10:35:47.956Z,52.67
2022-08-27T10:38:41.183Z,52.93
2022-08-27T10:41:22.996Z,53.13
2022-08-27T10:44:08.835Z,52.87
2022-08-27T10:47:06.814Z,53.26
2022-08-27T10:49:43.470Z,52.74
2022-08-27T10:52:51.603Z,52.62
2022-08-27T10:55:27.665Z,52.76
2022-08-27T10:58:16.461Z,51.92
2022-08-27T11:00:44.395Z,52.16
2022-08-27T11:03:33.308Z,52.01
2022-08-27T11:06:10.683Z,52.44
2022-08-27T11:08:44.890Z,51.58
2022-08-27T11:14:16.464Z,52.08
2022-08-27T11:16:49.343Z,51.80
2022-08-27T11:19:28.014Z,52.36
2022-08-27T11:22:12.180Z,52.62
2022-08-27T11:24:54.641Z,52.89
2022-08-27T11:27:26.298Z,53.07
2022-08-27T11:30:03.285Z,53.06
2022-08-27T11:33:14.349Z,53.03
2022-08-27T11:36:10.310Z,53.15
2022-08-27T11:38:59.749Z,53.09
2022-08-27T11:41:59.148Z,53.16
2022-08-27T11:44:28.185Z,52.83
2022-08-27T11:47:12.259Z,52.86
2022-08-27T11:49:51.181Z,53.05
2022-08-27T11:52:24.474Z,53.61
2022-08-27T11:54:59.114Z,53.09
2022-08-27T11:57:33.098Z,53.25
2022-08-27T12:00:16.750Z,53.00
2022-08-27T12:02:45.526Z,52.86
2022-08-27T12:05:21.174Z,53.00
2022-08-27T12:07:53.590Z,52.76
2022-08-27T12:10:38.275Z,52.50
2022-08-27T12:13:12.573Z,52.54
2022-08-27T12:15:46.424Z,52.48
2022-08-27T12:18:46.708Z,52.44
2022-08-27T12:21:27.157Z,52.25
2022-08-27T12:24:15.582Z,52.20
2022-08-27T12:26:55.728Z,52.42
2022-08-27T12:29:49.694Z,52.26
2022-08-27T12:32:29.608Z,52.25
2022-08-27T12:35:16.232Z,53.42
2022-08-27T12:38:04.339Z,53.19
2022-08-27T12:41:00.494Z,53.98
2022-08-27T12:43:33.627Z,54.17
2022-08-27T12:46:15.914Z,54.52
2022-08-27T12:48:46.597Z,54.34
2022-08-27T12:51:38.210Z,54.86
2022-08-27T12:54:06.659Z,54.40
2022-08-27T12:56:53.212Z,54.93
2022-08-27T12:59:51.740Z,55.19
2022-08-27T13:02:35.041Z,55.18
2022-08-27T13:05:10.343Z,54.24
2022-08-27T13:07:46.486Z,55.17
2022-08-27T13:10:19.493Z,55.24
2022-08-27T13:12:49.263Z,55.32
2022-08-27T13:15:19.418Z,55.24
2022-08-27T13:17:47.749Z,57.28
2022-08-27T13:20:26.088Z,56.59
2022-08-27T13:22:54.914Z,56.42
2022-08-27T13:25:30.154Z,55.63
2022-08-27T13:28:08.593Z,55.54
2022-08-27T13:30:39.588Z,54.79
2022-08-27T13:33:11.193Z,55.01
2022-08-27T13:35:43.310Z,55.19
2022-08-27T13:38:11.317Z,54.90
2022-08-27T13:40:59.927Z,54.30
2022-08-27T13:43:38.342Z,53.28
2022-08-27T13:46:12.326Z,53.20
2022-08-27T13:48:44.285Z,51.89
2022-08-27T13:51:13.902Z,51.65
2022-08-27T13:54:07.888Z,49.65
2022-08-27T13:56:39.702Z,48.84
2022-08-27T13:59:15.081Z,48.56
2022-08-27T14:02:23.654Z,48.36
2022-08-27T14:05:03.798Z,48.37
2022-08-27T14:07:36.145Z,49.22
2022-08-27T14:10:03.943Z,48.29
2022-08-27T14:12:35.416Z,48.84
2022-08-27T14:15:30.588Z,48.24
2022-08-27T14:17:58.794Z,48.29
2022-08-27T14:20:26.728Z,48.29
2022-08-27T14:22:56.113Z,48.21
2022-08-27T14:25:24.004Z,48.18
2022-08-27T14:27:55.089Z,48.47
2022-08-27T14:30:29.672Z,48.21
2022-08-27T14:33:00.604Z,48.04
2022-08-27T14:35:31.194Z,47.76
2022-08-27T14:38:04.630Z,48.00
2022-08-27T14:40:33.070Z,48.15
2022-08-27T14:43:00.947Z,47.72
2022-08-27T14:45:28.648Z,47.86
2022-08-27T14:48:01.974Z,47.28
2022-08-27T14:50:30.471Z,47.28
2022-08-27T14:52:58.214Z,47.91
2022-08-27T14:55:26.462Z,47.39
2022-08-27T14:57:54.347Z,47.30
2022-08-27T15:00:22.095Z,47.09
2022-08-27T15:02:50.080Z,46.61
2022-08-27T15:05:19.730Z,47.24
2022-08-27T15:07:58.197Z,47.11
2022-08-27T15:10:26.514Z,47.00
2022-08-27T15:12:54.996Z,47.01
2022-08-27T15:15:22.903Z,46.96
2022-08-27T15:17:50.726Z,47.03
2022-08-27T15:20:20.441Z,47.24
2022-08-27T15:22:51.101Z,47.04
2022-08-27T15:25:20.657Z,46.99
2022-08-27T15:27:48.970Z,47.04
2022-08-27T15:30:22.998Z,46.61
2022-08-27T15:32:51.154Z,46.67
2022-08-27T15:35:23.475Z,47.01
2022-08-27T15:37:52.866Z,47.08
2022-08-27T15:40:22.019Z,47.51
2022-08-27T15:42:56.181Z,47.61
2022-08-27T15:45:25.723Z,47.47
2022-08-27T15:47:56.411Z,47.38
2022-08-27T15:50:27.771Z,47.06
2022-08-27T15:53:00.510Z,46.63
2022-08-27T15:55:32.199Z,47.04
2022-08-27T15:58:00.169Z,47.37
2022-08-27T16:00:29.470Z,47.32
2022-08-27T16:02:57.596Z,47.81
2022-08-27T16:05:34.135Z,47.58
2022-08-27T16:08:02.684Z,47.18
2022-08-27T16:10:30.610Z,47.08
2022-08-27T16:12:58.273Z,46.96
2022-08-27T16:15:26.354Z,47.06
2022-08-27T16:17:58.848Z,45.79
2022-08-27T16:20:27.722Z,46.15
2022-08-27T16:22:55.491Z,46.19
2022-08-27T16:25:26.606Z,46.16
2022-08-27T16:27:55.430Z,46.44
2022-08-27T16:30:25.138Z,46.05
2022-08-27T16:32:53.819Z,45.83
2022-08-27T16:35:22.557Z,45.48
2022-08-27T16:37:50.245Z,45.89
2022-08-27T16:40:18.838Z,45.85
2022-08-27T16:42:50.915Z,46.20
2022-08-27T16:45:22.718Z,45.75
2022-08-27T16:48:08.948Z,45.66
2022-08-27T16:50:37.327Z,46.13
2022-08-27T16:53:09.163Z,46.17
2022-08-27T16:55:38.010Z,46.06
2022-08-27T16:58:17.414Z,46.21
2022-08-27T17:00:47.503Z,46.46
2022-08-27T17:03:16.544Z,46.85
2022-08-27T17:05:44.169Z,47.19
2022-08-27T17:08:13.641Z,47.17
2022-08-27T17:10:46.568Z,47.51
2022-08-27T17:13:17.789Z,47.69
2022-08-27T17:15:48.732Z,47.89
2022-08-27T17:18:25.183Z,47.98
2022-08-27T17:20:54.909Z,48.10
2022-08-27T17:23:34.727Z,48.22
2022-08-27T17:26:05.243Z,49.00
2022-08-27T17:28:33.346Z,48.60
2022-08-27T17:31:02.575Z,48.73
2022-08-27T17:33:44.207Z,48.55
2022-08-27T17:36:14.727Z,48.82
2022-08-27T17:38:43.081Z,48.90
2022-08-27T17:41:16.433Z,49.19
2022-08-27T17:43:44.256Z,49.15
2022-08-27T17:46:13.851Z,49.28
2022-08-27T17:48:42.392Z,49.26
2022-08-27T17:51:12.429Z,49.48
2022-08-27T17:53:47.328Z,49.91
2022-08-27T17:56:21.093Z,49.70
2022-08-27T17:58:51.644Z,50.25
2022-08-27T18:01:24.291Z,50.84
2022-08-27T18:03:57.926Z,50.99
2022-08-27T18:06:28.384Z,51.20
2022-08-27T18:08:56.471Z,51.47
2022-08-27T18:11:25.384Z,51.63
2022-08-27T18:13:57.027Z,51.27
2022-08-27T18:16:25.250Z,51.83
2022-08-27T18:18:53.000Z,51.65
2022-08-27T18:21:25.381Z,53.38
2022-08-27T18:23:54.521Z,54.16
2022-08-27T18:26:25.925Z,54.64
2022-08-27T18:28:54.892Z,53.92
2022-08-27T18:31:28.841Z,51.85
2022-08-27T18:33:56.687Z,50.82
2022-08-27T18:36:24.340Z,50.31
2022-08-27T18:38:52.088Z,50.50
2022-08-27T18:41:20.154Z,50.21
2022-08-27T18:43:49.299Z,49.71
2022-08-27T18:46:17.973Z,49.62
2022-08-27T18:48:45.803Z,49.76
2022-08-27T18:51:15.849Z,50.05
2022-08-27T18:53:44.900Z,49.86
2022-08-27T18:56:16.591Z,50.46
2022-08-27T18:58:47.047Z,50.04
2022-08-27T19:01:19.511Z,49.93
2022-08-27T19:03:51.987Z,49.57
2022-08-27T19:06:21.073Z,50.52
2022-08-27T19:08:50.137Z,49.64
2022-08-27T19:11:17.971Z,49.81
2022-08-27T19:13:50.545Z,49.56
2022-08-27T19:16:29.438Z,49.32
2022-08-27T19:18:57.515Z,49.58
2022-08-27T19:21:25.128Z,49.70
2022-08-27T19:23:54.318Z,49.82
2022-08-27T19:26:25.381Z,50.12
2022-08-27T19:28:53.146Z,49.78
2022-08-27T19:31:21.002Z,49.77
2022-08-27T19:33:49.070Z,49.72
2022-08-27T19:36:18.839Z,50.09
2022-08-27T19:38:51.624Z,49.83
2022-08-27T19:41:19.544Z,50.12
2022-08-27T19:43:47.418Z,49.97
2022-08-27T19:46:21.607Z,49.90
2022-08-27T19:48:49.457Z,50.02
2022-08-27T19:51:17.179Z,50.17
2022-08-27T19:53:45.660Z,50.16
2022-08-27T19:56:14.152Z,50.64
2022-08-27T19:58:42.947Z,50.19
2022-08-27T20:01:11.757Z,50.01
2022-08-27T20:03:40.115Z,50.35
2022-08-27T20:06:08.118Z,50.08
2022-08-27T20:08:36.022Z,50.11
2022-08-27T20:11:03.768Z,50.30
2022-08-27T20:13:34.623Z,50.64
2022-08-27T20:16:03.476Z,50.67
2022-08-27T20:18:32.798Z,50.46
2022-08-27T20:21:05.888Z,50.77
2022-08-27T20:23:34.324Z,50.56
2022-08-27T20:26:02.093Z,50.73
2022-08-27T20:28:45.429Z,51.09
2022-08-27T20:31:13.800Z,50.78
2022-08-27T20:33:41.821Z,50.94
2022-08-27T20:36:09.856Z,51.16
2022-08-27T20:38:38.315Z,51.22
2022-08-27T20:41:06.967Z,51.22
2022-08-27T20:43:35.735Z,50.89
2022-08-27T20:46:03.962Z,51.00
2022-08-27T20:48:32.464Z,51.21
2022-08-27T20:51:01.475Z,51.12
2022-08-27T20:53:30.604Z,51.25
2022-08-27T20:56:00.292Z,51.00
2022-08-27T20:58:46.504Z,51.42
2022-08-27T21:01:14.456Z,51.17
2022-08-27T21:03:42.120Z,50.93
2022-08-27T21:06:10.622Z,50.98
2022-08-27T21:08:39.083Z,50.82
2022-08-27T21:11:12.478Z,50.93
2022-08-27T21:13:55.244Z,51.04
2022-08-27T21:16:25.697Z,51.47
2022-08-27T21:18:54.310Z,51.55
2022-08-27T21:21:22.642Z,51.57
2022-08-27T21:23:50.430Z,51.78
2022-08-27T21:26:18.346Z,52.20
2022-08-27T21:28:46.139Z,52.01
2022-08-27T21:31:14.080Z,52.22
2022-08-27T21:33:41.847Z,51.94
2022-08-27T21:36:12.163Z,52.15
2022-08-27T21:38:40.732Z,52.10
2022-08-27T21:41:08.799Z,52.61
2022-08-27T21:43:37.014Z,52.31
2022-08-27T21:46:04.848Z,52.40
2022-08-27T21:48:33.699Z,52.50
2022-08-27T21:51:07.965Z,52.35
2022-08-27T21:53:36.245Z,52.26
2022-08-27T21:56:04.301Z,52.11
2022-08-27T21:58:32.087Z,52.31
2022-08-27T22:01:02.147Z,52.07
2022-08-27T22:03:29.916Z,51.92
2022-08-27T22:05:57.754Z,51.98
2022-08-27T22:08:25.771Z,51.99
2022-08-27T22:10:58.306Z,51.92
2022-08-27T22:13:26.346Z,52.16
2022-08-27T22:15:54.101Z,51.95
2022-08-27T22:18:23.835Z,51.89
2022-08-27T22:20:52.590Z,52.15
2022-08-27T22:23:21.408Z,51.84
2022-08-27T22:25:49.447Z,51.84
2022-08-27T22:28:18.958Z,51.73
2022-08-27T22:30:46.981Z,51.82
2022-08-27T22:33:16.245Z,51.75
2022-08-27T22:35:45.392Z,51.44
2022-08-27T22:38:14.677Z,51.71
2022-08-27T22:40:42.986Z,51.86
2022-08-27T22:43:12.307Z,51.77
2022-08-27T22:45:40.124Z,51.51
2022-08-27T22:48:07.943Z,51.38
2022-08-27T22:50:35.671Z,51.65
2022-08-27T22:53:03.609Z,51.65
2022-08-27T22:55:31.192Z,51.77
2022-08-27T22:57:59.230Z,51.50
2022-08-27T23:00:32.135Z,51.44
2022-08-27T23:03:05.704Z,51.45
2022-08-27T23:05:41.727Z,51.50
2022-08-27T23:08:13.056Z,51.58
2022-08-27T23:10:42.921Z,51.74
2022-08-27T23:13:12.261Z,51.91
2022-08-27T23:15:40.979Z,51.45
2022-08-27T23:18:08.927Z,51.43
2022-08-27T23:20:36.833Z,51.49
2022-08-27T23:23:04.672Z,51.36
2022-08-27T23:25:52.637Z,51.46
2022-08-27T23:28:20.634Z,51.87
2022-08-27T23:30:48.621Z,51.65
2022-08-27T23:33:16.556Z,51.58
2022-08-27T23:35:48.182Z,51.84
2022-08-27T23:38:19.083Z,51.43
2022-08-27T23:40:48.401Z,51.43
2022-08-27T23:43:17.515Z,51.65
2022-08-27T23:45:45.889Z,51.62
2022-08-27T23:48:14.283Z,51.64
2022-08-27T23:50:42.695Z,51.80
2022-08-27T23:53:11.679Z,51.94
2022-08-27T23:55:41.151Z,51.40
2022-08-27T23:58:10.102Z,51.88
